Time;durP1;ratioP1;P1;durP2;ratioP2;P2;SDS_P1;SDS_P2;PMS_P1;PMS_P2;Temp;Humidity;BMP_temperature;BMP_pressure;BME280_temperature;BME280_humidity;BME280_pressure;Samples;Min_cycle;Max_cycle;Signal;HPM_P1;HPM_P2
2023/11/29 00:00:03;;;;;;;26.93;12.50;;;;;;;-3.53;100.00;100100.09;5050996;28;20490;-68
2023/11/29 00:02:38;;;;;;;28.03;12.87;;;;;;;-3.49;100.00;100097.78;5041702;23;20961;-71
2023/11/29 00:05:06;;;;;;;27.87;12.50;;;;;;;-3.46;100.00;100089.56;5020339;28;20483;-70
2023/11/29 00:07:34;;;;;;;26.90;12.33;;;;;;;-3.44;100.00;100093.47;5011242;28;20477;-70
2023/11/29 00:10:00;;;;;;;27.50;11.77;;;;;;;-3.41;100.00;100099.94;5014055;28;20972;-70
2023/11/29 00:12:27;;;;;;;28.50;12.30;;;;;;;-3.37;100.00;100090.69;5014016;28;20574;-70
2023/11/29 00:14:53;;;;;;;28.97;12.27;;;;;;;-3.33;100.00;100097.69;5017737;28;20472;-71
2023/11/29 00:17:20;;;;;;;28.73;12.80;;;;;;;-3.30;100.00;100104.16;5009669;28;20459;-70
2023/11/29 00:19:45;;;;;;;26.57;12.77;;;;;;;-3.29;100.00;100096.16;5015106;28;21010;-70
2023/11/29 00:22:12;;;;;;;23.80;10.83;;;;;;;-3.26;100.00;100087.91;5012719;28;20489;-71
2023/11/29 00:24:39;;;;;;;29.37;11.60;;;;;;;-3.21;100.00;100090.53;5010691;28;20215;-70
2023/11/29 00:27:06;;;;;;;24.07;11.10;;;;;;;-3.20;100.00;100088.75;5011934;28;20480;-69
2023/11/29 00:29:32;;;;;;;19.50;10.67;;;;;;;-3.17;100.00;100085.69;5014460;28;20473;-70
2023/11/29 00:31:58;;;;;;;25.93;11.53;;;;;;;-3.15;100.00;100076.66;5016440;28;20884;-70
2023/11/29 00:34:24;;;;;;;21.97;11.27;;;;;;;-3.10;100.00;100081.88;5015928;28;20208;-68
2023/11/29 00:36:51;;;;;;;23.30;11.97;;;;;;;-3.07;100.00;100085.75;5010120;28;20208;-70
2023/11/29 00:39:18;;;;;;;23.83;11.00;;;;;;;-3.03;100.00;100087.59;5013810;28;20287;-71
2023/11/29 00:41:45;;;;;;;20.40;9.97;;;;;;;-3.04;100.00;100074.91;5017654;28;20501;-70
2023/11/29 00:44:13;;;;;;;19.23;10.47;;;;;;;-3.00;100.00;100081.13;5016981;28;20240;-70
2023/11/29 00:46:39;;;;;;;21.53;10.57;;;;;;;-3.00;100.00;100081.13;5012601;28;20472;-70
2023/11/29 00:49:06;;;;;;;20.93;10.03;;;;;;;-2.98;100.00;100079.88;5019906;28;20470;-71
2023/11/29 00:51:32;;;;;;;22.63;9.77;;;;;;;-2.96;100.00;100085.56;5016981;28;20478;-71
2023/11/29 00:53:59;;;;;;;19.27;9.37;;;;;;;-2.96;100.00;100085.56;5014490;28;20548;-70
2023/11/29 00:56:25;;;;;;;21.40;9.80;;;;;;;-2.97;100.00;100081.41;5027129;28;20999;-71
2023/11/29 00:58:53;;;;;;;18.73;9.27;;;;;;;-2.97;100.00;100080.63;5018509;28;20481;-71
2023/11/29 01:01:19;;;;;;;22.87;10.00;;;;;;;-2.98;100.00;100072.13;5015043;28;20482;-70
2023/11/29 01:03:46;;;;;;;18.57;9.20;;;;;;;-2.95;100.00;100086.34;5018606;28;20976;-71
2023/11/29 01:06:12;;;;;;;22.77;9.47;;;;;;;-2.95;100.00;100081.94;5018924;28;20212;-71
2023/11/29 01:08:38;;;;;;;20.90;9.70;;;;;;;-2.92;100.00;100081.44;5015501;28;20497;-70
2023/11/29 01:11:05;;;;;;;19.13;8.93;;;;;;;-2.90;100.00;100076.81;5022781;28;20986;-71
2023/11/29 01:13:31;;;;;;;20.67;10.70;;;;;;;-2.89;100.00;100085.34;5015751;28;20665;-70
2023/11/29 01:16:00;;;;;;;19.63;8.90;;;;;;;-2.88;100.00;100085.09;5019687;28;20681;-70
2023/11/29 01:18:27;;;;;;;21.67;9.93;;;;;;;-2.86;100.00;100079.69;5016626;28;20901;-69
2023/11/29 01:20:53;;;;;;;21.70;9.77;;;;;;;-2.85;100.00;100083.81;5019306;28;20488;-70
2023/11/29 01:23:20;;;;;;;21.17;9.60;;;;;;;-2.81;100.00;100079.72;5031564;28;20497;-70
2023/11/29 01:25:46;;;;;;;22.57;10.73;;;;;;;-2.80;100.00;100076.09;5021924;28;20549;-70
2023/11/29 01:28:12;;;;;;;19.33;8.93;;;;;;;-2.79;100.00;100072.47;5017394;28;20475;-71
2023/11/29 01:30:39;;;;;;;26.57;11.03;;;;;;;-2.77;100.00;100073.00;5013959;28;20734;-70
2023/11/29 01:33:06;;;;;;;22.67;10.13;;;;;;;-2.76;100.00;100064.25;5017760;28;20495;-69
2023/11/29 01:35:33;;;;;;;20.60;10.87;;;;;;;-2.74;100.00;100064.75;5017424;28;20478;-70
2023/11/29 01:38:00;;;;;;;20.40;9.93;;;;;;;-2.72;100.00;100073.81;5015529;28;20469;-69
2023/11/29 01:40:27;;;;;;;20.47;9.83;;;;;;;-2.67;100.00;100073.06;5012918;28;20848;-71
2023/11/29 01:42:55;;;;;;;21.53;10.20;;;;;;;-2.66;100.00;100072.03;5019566;28;20610;-71
2023/11/29 01:45:21;;;;;;;23.53;10.73;;;;;;;-2.67;100.00;100076.44;5015455;28;20463;-70
2023/11/29 01:47:48;;;;;;;19.87;10.23;;;;;;;-2.64;100.00;100081.06;5018535;28;20292;-70
2023/11/29 01:50:19;;;;;;;21.63;10.03;;;;;;;-2.63;100.00;100085.25;5019535;28;20459;-70
2023/11/29 01:52:46;;;;;;;19.03;9.57;;;;;;;-2.63;100.00;100069.75;5014154;28;20495;-70
2023/11/29 01:55:13;;;;;;;24.20;10.80;;;;;;;-2.64;100.00;100073.31;5018760;28;20722;-70
2023/11/29 01:57:40;;;;;;;19.13;10.20;;;;;;;-2.62;100.00;100067.91;5016481;28;20528;-70
2023/11/29 02:00:08;;;;;;;22.40;10.33;;;;;;;-2.61;100.00;100080.59;5015511;28;20479;-69
2023/11/29 02:02:42;;;;;;;21.27;10.07;;;;;;;-2.61;100.00;100066.88;5012318;28;20242;-70
2023/11/29 02:05:09;;;;;;;19.70;10.07;;;;;;;-2.60;100.00;100071.81;5018871;28;21000;-71
2023/11/29 02:07:37;;;;;;;19.63;10.03;;;;;;;-2.60;100.00;100069.22;5016167;28;20379;-69
2023/11/29 02:10:04;;;;;;;20.27;9.87;;;;;;;-2.59;100.00;100067.41;5015200;28;20200;-70
2023/11/29 02:12:32;;;;;;;22.90;10.33;;;;;;;-2.56;100.00;100064.31;5015535;28;20481;-70
2023/11/29 02:14:58;;;;;;;19.03;9.60;;;;;;;-2.56;100.00;100053.97;5017897;28;20208;-71
2023/11/29 02:17:25;;;;;;;20.67;11.27;;;;;;;-2.55;100.00;100050.38;5016271;28;20477;-71
2023/11/29 02:19:52;;;;;;;18.73;9.47;;;;;;;-2.54;100.00;100046.78;5014283;28;21089;-70
2023/11/29 02:22:19;;;;;;;19.77;10.47;;;;;;;-2.56;100.00;100041.06;5014816;28;20219;-71
2023/11/29 02:24:48;;;;;;;19.27;9.63;;;;;;;-2.55;100.00;100040.81;5015309;28;20204;-70
2023/11/29 02:27:15;;;;;;;17.87;9.97;;;;;;;-2.56;100.00;100039.25;5030968;28;20204;-70
2023/11/29 02:29:41;;;;;;;18.23;9.13;;;;;;;-2.54;100.00;100036.44;5014816;28;20518;-70
2023/11/29 02:32:07;;;;;;;17.40;8.73;;;;;;;-2.52;100.00;100031.78;5010617;28;20238;-71
2023/11/29 02:34:35;;;;;;;16.87;8.43;;;;;;;-2.52;100.00;100036.94;5014563;28;20537;-70
2023/11/29 02:37:02;;;;;;;18.50;9.60;;;;;;;-2.54;100.00;100026.84;5013093;28;20666;-70
2023/11/29 02:39:28;;;;;;;15.83;8.13;;;;;;;-2.52;100.00;100029.97;5011297;28;20231;-68
2023/11/29 02:41:56;;;;;;;15.33;8.03;;;;;;;-2.51;100.00;100035.91;5032679;28;20228;-69
2023/11/29 02:44:22;;;;;;;17.57;8.73;;;;;;;-2.50;100.00;100027.91;5027493;28;20697;-71
2023/11/29 02:46:48;;;;;;;20.10;9.77;;;;;;;-2.51;100.00;100030.75;5019188;28;20220;-71
2023/11/29 02:49:16;;;;;;;17.87;9.00;;;;;;;-2.50;100.00;100027.91;5011599;28;20196;-70
2023/11/29 02:51:43;;;;;;;15.87;8.17;;;;;;;-2.49;100.00;100021.69;5015749;28;20236;-70
2023/11/29 02:54:09;;;;;;;20.43;9.90;;;;;;;-2.46;100.00;100023.00;5012276;28;20412;-70
2023/11/29 02:56:35;;;;;;;20.33;9.27;;;;;;;-2.45;100.00;100027.94;5017109;28;20546;-70
2023/11/29 02:59:03;;;;;;;17.57;8.80;;;;;;;-2.44;100.00;100024.31;5012494;28;20211;-70
2023/11/29 03:01:29;;;;;;;18.50;9.47;;;;;;;-2.45;100.00;100015.00;5013844;28;20490;-71
2023/11/29 03:03:56;;;;;;;18.30;9.43;;;;;;;-2.43;100.00;100017.34;5017044;28;20218;-71
2023/11/29 03:06:22;;;;;;;14.33;7.50;;;;;;;-2.43;100.00;100012.97;5010981;28;20223;-70
2023/11/29 03:08:48;;;;;;;15.77;8.50;;;;;;;-2.42;100.00;100008.56;5016695;28;20216;-70
2023/11/29 03:11:15;;;;;;;16.23;8.53;;;;;;;-2.41;100.00;100008.31;5026415;28;20303;-70
2023/11/29 03:13:41;;;;;;;17.00;8.73;;;;;;;-2.42;100.00;100009.34;5028089;28;20231;-71
2023/11/29 03:16:10;;;;;;;16.93;8.77;;;;;;;-2.42;100.00;100014.50;5018264;28;20211;-70
2023/11/29 03:18:37;;;;;;;15.47;7.93;;;;;;;-2.44;100.00;100008.78;5016529;28;20254;-71
2023/11/29 03:21:04;;;;;;;19.07;8.23;;;;;;;-2.46;100.00;100003.13;5014731;28;20484;-71
2023/11/29 03:23:30;;;;;;;16.80;8.43;;;;;;;-2.44;100.00;99998.47;5015276;28;20661;-69
2023/11/29 03:25:56;;;;;;;14.53;7.10;;;;;;;-2.47;100.00;99996.41;5014566;28;20494;-69
2023/11/29 03:28:23;;;;;;;14.33;7.87;;;;;;;-2.49;100.00;99989.94;5013551;28;20216;-70
2023/11/29 03:30:49;;;;;;;18.47;9.00;;;;;;;-2.52;100.00;99985.25;5015846;28;20207;-70
2023/11/29 03:33:17;;;;;;;16.40;7.83;;;;;;;-2.60;100.00;99983.94;5018105;28;20487;-71
2023/11/29 03:35:43;;;;;;;14.77;8.80;;;;;;;-2.66;100.00;99987.53;5013044;28;20214;-68
2023/11/29 03:38:09;;;;;;;16.40;8.43;;;;;;;-2.72;100.00;99983.38;5016007;28;20463;-70
2023/11/29 03:40:36;;;;;;;16.33;8.07;;;;;;;-2.79;100.00;99974.31;5009461;28;20474;-70
2023/11/29 03:43:02;;;;;;;16.57;8.67;;;;;;;-2.87;100.00;99975.56;5016973;28;20216;-71
2023/11/29 03:45:28;;;;;;;15.33;7.57;;;;;;;-2.94;100.00;99969.88;5012954;28;20478;-68
2023/11/29 03:47:55;;;;;;;14.33;7.80;;;;;;;-2.98;100.00;99971.41;5013061;28;20469;-70
2023/11/29 03:50:22;;;;;;;15.60;7.73;;;;;;;-3.04;100.00;99969.81;5010208;28;21059;-70
2023/11/29 03:52:50;;;;;;;15.37;6.97;;;;;;;-3.06;100.00;99969.28;5015421;28;20489;-70
2023/11/29 03:55:16;;;;;;;15.10;8.10;;;;;;;-3.08;100.00;99960.22;5010099;28;20468;-69
2023/11/29 03:57:43;;;;;;;14.67;8.30;;;;;;;-3.15;100.00;99955.31;5012263;28;20829;-70
2023/11/29 04:00:11;;;;;;;14.37;7.37;;;;;;;-3.19;100.00;99954.25;5018145;28;20492;-70
2023/11/29 04:02:37;;;;;;;12.33;7.37;;;;;;;-3.23;100.00;99945.44;5012127;28;20496;-70
2023/11/29 04:05:04;;;;;;;11.97;7.23;;;;;;;-3.28;100.00;99947.22;5014287;28;20472;-71
2023/11/29 04:07:32;;;;;;;15.43;8.23;;;;;;;-3.35;100.00;99942.31;5017008;28;20505;-69
2023/11/29 04:10:00;;;;;;;14.37;8.20;;;;;;;-3.38;100.00;99931.72;5028698;28;20842;-70
2023/11/29 04:12:26;;;;;;;15.30;8.03;;;;;;;-3.43;100.00;99931.69;5027277;28;20475;-70
2023/11/29 04:14:53;;;;;;;13.07;7.33;;;;;;;-3.47;100.00;99933.19;5011920;28;20470;-68
2023/11/29 04:17:19;;;;;;;13.40;7.83;;;;;;;-3.50;100.00;99926.72;5019002;28;20456;-69
2023/11/29 04:19:45;;;;;;;14.50;7.87;;;;;;;-3.50;100.00;99928.53;5012398;28;20460;-70
2023/11/29 04:22:12;;;;;;;10.63;7.27;;;;;;;-3.53;100.00;99929.78;5015516;28;21155;-70
2023/11/29 04:24:39;;;;;;;13.80;7.10;;;;;;;-3.56;100.00;99924.38;5018006;28;20475;-71
2023/11/29 04:27:06;;;;;;;11.80;7.10;;;;;;;-3.59;100.00;99919.69;5022019;28;20997;-69
2023/11/29 04:29:32;;;;;;;12.43;7.73;;;;;;;-3.65;100.00;99921.47;5021296;28;21010;-70
2023/11/29 04:31:57;;;;;;;13.27;6.90;;;;;;;-3.67;100.00;99913.22;5017146;28;20580;-70
2023/11/29 04:34:24;;;;;;;10.03;6.70;;;;;;;-3.70;100.00;99912.91;5030392;28;20491;-71
2023/11/29 04:36:50;;;;;;;12.00;7.87;;;;;;;-3.75;100.00;99911.09;5017297;28;20198;-68
2023/11/29 04:39:18;;;;;;;12.00;7.13;;;;;;;-3.79;100.00;99909.25;5021054;28;20580;-69
2023/11/29 04:41:46;;;;;;;15.37;8.27;;;;;;;-3.86;100.00;99909.47;5019326;28;20480;-69
2023/11/29 04:44:13;;;;;;;15.27;8.60;;;;;;;-3.87;100.00;99915.66;5020595;28;21071;-69
2023/11/29 04:46:39;;;;;;;14.67;8.67;;;;;;;-3.88;100.00;99897.84;5019190;28;20468;-70
2023/11/29 04:49:06;;;;;;;16.50;9.73;;;;;;;-3.90;100.00;99905.03;5020401;28;20475;-69
2023/11/29 04:51:32;;;;;;;18.03;10.40;;;;;;;-3.91;100.00;99896.53;5015441;28;20480;-70
2023/11/29 04:53:58;;;;;;;17.77;10.57;;;;;;;-3.95;100.00;99892.91;5019721;28;20475;-69
2023/11/29 04:56:25;;;;;;;14.83;9.60;;;;;;;-3.98;100.00;99893.41;5017028;28;20473;-70
2023/11/29 04:58:52;;;;;;;15.93;11.77;;;;;;;-4.02;100.00;99888.97;5015691;28;20793;-71
2023/11/29 05:01:19;;;;;;;13.20;8.43;;;;;;;-4.06;100.00;99882.75;5017884;28;20487;-70
2023/11/29 05:03:45;;;;;;;13.53;8.57;;;;;;;-4.09;100.00;99883.25;5014500;28;20473;-69
2023/11/29 05:06:12;;;;;;;20.67;17.47;;;;;;;-4.15;100.00;99876.53;5017801;28;20929;-70
2023/11/29 05:08:39;;;;;;;17.70;11.33;;;;;;;-4.17;100.00;99868.22;5020847;28;20477;-71
2023/11/29 05:11:06;;;;;;;14.43;9.40;;;;;;;-4.20;100.00;99871.31;5017155;28;20509;-70
2023/11/29 05:13:33;;;;;;;14.70;10.97;;;;;;;-4.22;100.00;99873.34;5018748;28;20536;-70
2023/11/29 05:16:01;;;;;;;12.47;7.50;;;;;;;-4.26;100.00;99872.31;5015867;28;20455;-70
2023/11/29 05:18:27;;;;;;;12.07;7.53;;;;;;;-4.29;100.00;99868.44;5017676;28;20923;-71
2023/11/29 05:20:54;;;;;;;10.10;6.50;;;;;;;-4.33;100.00;99867.34;5020403;28;20470;-70
2023/11/29 05:23:21;;;;;;;11.53;6.30;;;;;;;-4.34;100.00;99872.75;5015123;28;21007;-71
2023/11/29 05:25:47;;;;;;;9.37;5.90;;;;;;;-4.36;100.00;99867.84;5011645;28;20471;-70
2023/11/29 05:28:14;;;;;;;10.90;6.47;;;;;;;-4.37;100.00;99862.91;5021383;28;20524;-70
2023/11/29 05:30:40;;;;;;;11.67;6.60;;;;;;;-4.42;100.00;99862.88;5015302;28;20883;-70
2023/11/29 05:33:08;;;;;;;13.13;7.93;;;;;;;-4.46;100.00;99865.16;5013616;28;20486;-69
2023/11/29 05:35:34;;;;;;;12.07;7.13;;;;;;;-4.48;100.00;99861.28;5016801;28;21732;-68
2023/11/29 05:38:00;;;;;;;12.63;7.13;;;;;;;-4.51;100.00;99867.69;5015472;28;20948;-70
2023/11/29 05:40:27;;;;;;;9.53;6.27;;;;;;;-4.52;100.00;99860.25;5015147;28;20463;-70
2023/11/29 05:42:54;;;;;;;9.93;6.43;;;;;;;-4.56;100.00;99862.50;5013412;28;20505;-70
2023/11/29 05:45:20;;;;;;;10.57;6.63;;;;;;;-4.57;100.00;99860.19;5011425;28;20467;-70
2023/11/29 05:47:47;;;;;;;11.03;6.50;;;;;;;-4.61;100.00;99869.44;5013993;28;20560;-68
2023/11/29 05:50:14;;;;;;;11.57;6.63;;;;;;;-4.67;100.00;99866.00;5017880;28;20463;-69
2023/11/29 05:52:41;;;;;;;10.37;6.20;;;;;;;-4.71;100.00;99856.44;5015750;28;20487;-71
2023/11/29 05:55:07;;;;;;;8.70;6.27;;;;;;;-4.74;100.00;99857.72;5012751;28;20486;-70
2023/11/29 05:57:34;;;;;;;11.30;6.37;;;;;;;-4.78;100.00;99848.13;5013020;28;21060;-70
2023/11/29 06:00:08;;;;;;;8.73;5.97;;;;;;;-4.79;100.00;99854.31;5011943;28;20550;-69
2023/11/29 06:02:39;;;;;;;10.07;6.07;;;;;;;-4.82;100.00;99855.56;5011143;28;20655;-69
2023/11/29 06:05:07;;;;;;;11.07;6.63;;;;;;;-4.85;100.00;99848.34;5014305;28;20467;-69
2023/11/29 06:07:35;;;;;;;9.83;6.20;;;;;;;-4.85;100.00;99850.91;5014444;28;20542;-69
2023/11/29 06:10:03;;;;;;;10.37;6.07;;;;;;;-4.86;100.00;99853.72;5016065;28;20481;-71
2023/11/29 06:12:30;;;;;;;8.33;5.70;;;;;;;-4.87;100.00;99847.03;5015146;28;20567;-70
2023/11/29 06:14:56;;;;;;;8.60;5.80;;;;;;;-4.86;100.00;99853.72;5017883;28;21034;-70
2023/11/29 06:17:23;;;;;;;12.30;7.10;;;;;;;-4.86;100.00;99841.66;5019101;28;20470;-70
2023/11/29 06:19:49;;;;;;;9.93;6.13;;;;;;;-4.85;100.00;99848.34;5022246;28;20470;-70
2023/11/29 06:22:16;;;;;;;10.77;6.50;;;;;;;-4.84;100.00;99846.53;5016904;28;20522;-70
2023/11/29 06:24:43;;;;;;;12.33;7.30;;;;;;;-4.82;100.00;99841.94;5016246;28;20481;-69
2023/11/29 06:27:10;;;;;;;12.23;6.23;;;;;;;-4.83;100.00;99835.22;5018153;28;20460;-69
2023/11/29 06:29:36;;;;;;;9.53;5.73;;;;;;;-4.81;100.00;99831.38;5017022;28;21027;-69
2023/11/29 06:32:02;;;;;;;12.63;6.37;;;;;;;-4.81;100.00;99833.94;5019366;28;20490;-70
2023/11/29 06:34:28;;;;;;;10.47;6.20;;;;;;;-4.84;100.00;99834.44;5017441;28;20837;-68
2023/11/29 06:36:55;;;;;;;9.33;6.50;;;;;;;-4.87;100.00;99839.31;5016263;28;20476;-70
2023/11/29 06:39:22;;;;;;;10.67;6.43;;;;;;;-4.89;100.00;99843.91;5017379;28;20826;-70
2023/11/29 06:41:49;;;;;;;9.20;6.67;;;;;;;-4.91;100.00;99849.31;5017116;28;21633;-68
2023/11/29 06:44:16;;;;;;;9.53;5.80;;;;;;;-4.93;100.00;99835.91;5020203;28;20462;-71
2023/11/29 06:46:42;;;;;;;10.13;5.83;;;;;;;-4.95;100.00;99839.72;5015234;28;20501;-71
2023/11/29 06:49:09;;;;;;;9.47;5.67;;;;;;;-4.97;100.00;99842.53;5019105;28;20493;-70
2023/11/29 06:51:38;;;;;;;9.43;5.70;;;;;;;-4.99;100.00;99843.81;5013361;28;20520;-71
2023/11/29 06:54:05;;;;;;;12.30;6.20;;;;;;;-5.01;100.00;99851.78;5016868;28;20729;-70
2023/11/29 06:56:31;;;;;;;8.00;5.60;;;;;;;-5.03;100.00;99843.50;5014491;28;20545;-69
2023/11/29 06:58:58;;;;;;;12.73;6.37;;;;;;;-5.04;100.00;99844.53;5015365;28;20462;-70
2023/11/29 07:01:25;;;;;;;15.37;6.23;;;;;;;-5.03;100.00;99840.19;5013323;28;20533;-69
2023/11/29 07:03:51;;;;;;;10.13;6.50;;;;;;;-5.04;100.00;99841.16;5014928;28;20462;-71
2023/11/29 07:06:21;;;;;;;9.27;6.00;;;;;;;-5.06;100.00;99844.00;5019068;28;20462;-69
2023/11/29 07:08:48;;;;;;;11.10;6.57;;;;;;;-5.06;100.00;99841.44;5017558;28;20981;-69
2023/11/29 07:11:14;;;;;;;9.90;5.70;;;;;;;-5.06;100.00;99843.22;5014772;28;20493;-70
2023/11/29 07:13:40;;;;;;;9.47;5.63;;;;;;;-5.05;100.00;99848.13;5017195;28;20828;-70
2023/11/29 07:16:09;;;;;;;9.40;6.07;;;;;;;-5.06;100.00;99849.16;5015886;28;20462;-70
2023/11/29 07:18:37;;;;;;;11.20;5.83;;;;;;;-5.06;100.00;99844.00;5018194;28;20980;-70
2023/11/29 07:21:03;;;;;;;12.30;5.77;;;;;;;-5.03;100.00;99842.75;5018410;28;20473;-69
2023/11/29 07:23:30;;;;;;;11.30;6.87;;;;;;;-5.02;100.00;99839.16;5013837;28;20490;-71
2023/11/29 07:25:56;;;;;;;8.87;5.93;;;;;;;-5.01;100.00;99838.91;5016824;28;20470;-70
2023/11/29 07:28:23;;;;;;;9.77;5.83;;;;;;;-4.99;100.00;99830.94;5015372;28;20466;-70
2023/11/29 07:30:49;;;;;;;7.87;5.47;;;;;;;-4.97;100.00;99834.06;5013650;28;20478;-70
2023/11/29 07:33:17;;;;;;;9.57;5.93;;;;;;;-4.95;100.00;99839.72;5015251;28;20992;-70
2023/11/29 07:35:44;;;;;;;9.40;5.30;;;;;;;-4.90;100.00;99855.22;5013877;28;20828;-69
2023/11/29 07:38:10;;;;;;;11.07;6.17;;;;;;;-4.86;100.00;99846.00;5018352;28;20828;-70
2023/11/29 07:40:37;;;;;;;10.97;6.30;;;;;;;-4.82;100.00;99837.53;5015102;28;20472;-71
2023/11/29 07:43:04;;;;;;;13.30;7.37;;;;;;;-4.75;100.00;99842.50;5020049;28;20712;-69
2023/11/29 07:45:30;;;;;;;11.33;6.47;;;;;;;-4.71;100.00;99831.47;5014358;28;20830;-70
2023/11/29 07:47:56;;;;;;;12.63;6.67;;;;;;;-4.64;100.00;99844.94;5014557;28;20478;-70
2023/11/29 07:50:24;;;;;;;11.47;6.07;;;;;;;-4.60;100.00;99850.38;5013259;28;20475;-70
2023/11/29 07:52:51;;;;;;;12.60;6.87;;;;;;;-4.56;100.00;99834.16;5013854;28;20569;-70
2023/11/29 07:55:17;;;;;;;9.43;5.77;;;;;;;-4.53;100.00;99838.84;5013490;28;20470;-71
2023/11/29 07:57:47;;;;;;;12.07;6.00;;;;;;;-4.48;100.00;99833.75;5011411;28;20478;-70
2023/11/29 08:00:14;;;;;;;11.40;5.83;;;;;;;-4.42;100.00;99830.19;5014507;28;21121;-70
2023/11/29 08:02:41;;;;;;;12.70;5.93;;;;;;;-4.35;100.00;99829.97;5011764;28;20490;-70
2023/11/29 08:05:08;;;;;;;11.20;6.27;;;;;;;-4.26;100.00;99829.25;5013808;28;20481;-70
2023/11/29 08:07:36;;;;;;;8.10;5.20;;;;;;;-4.16;100.00;99831.13;5016956;28;20529;-69
2023/11/29 08:10:02;;;;;;;11.83;6.60;;;;;;;-4.05;100.00;99825.78;5014398;28;20503;-69
2023/11/29 08:12:29;;;;;;;9.40;5.70;;;;;;;-3.92;100.00;99827.94;5011370;28;20484;-69
2023/11/29 08:14:56;;;;;;;10.23;5.73;;;;;;;-3.83;100.00;99831.59;5010852;28;20926;-70
2023/11/29 08:17:22;;;;;;;9.53;5.30;;;;;;;-3.73;100.00;99829.06;5017248;28;20470;-70
2023/11/29 08:19:48;;;;;;;9.57;5.67;;;;;;;-3.62;100.00;99828.13;5017379;28;20481;-70
2023/11/29 08:22:15;;;;;;;9.77;6.00;;;;;;;-3.53;100.00;99831.00;5015781;28;21037;-70
2023/11/29 08:24:42;;;;;;;11.47;5.90;;;;;;;-3.43;100.00;99836.19;5015328;28;20791;-69
2023/11/29 08:27:09;;;;;;;9.63;6.43;;;;;;;-3.36;100.00;99834.16;5016129;28;20463;-70
2023/11/29 08:29:36;;;;;;;18.40;8.03;;;;;;;-3.27;100.00;99840.38;5016818;28;20573;-70
2023/11/29 08:32:03;;;;;;;14.50;7.67;;;;;;;-3.20;100.00;99830.59;5016215;28;20482;-69
2023/11/29 08:34:29;;;;;;;10.70;6.27;;;;;;;-3.13;100.00;99829.31;5020605;28;20472;-69
2023/11/29 08:36:56;;;;;;;12.20;6.63;;;;;;;-3.06;100.00;99824.69;5020969;28;20978;-70
2023/11/29 08:39:22;;;;;;;12.40;5.83;;;;;;;-2.98;100.00;99828.56;5020898;28;21021;-70
2023/11/29 08:41:49;;;;;;;12.20;6.33;;;;;;;-2.92;100.00;99819.81;5015169;28;20495;-69
2023/11/29 08:44:16;;;;;;;13.40;6.13;;;;;;;-2.86;100.00;99827.31;5019620;28;21035;-71
2023/11/29 08:46:43;;;;;;;13.17;6.30;;;;;;;-2.80;100.00;99813.38;5016517;28;20470;-70
2023/11/29 08:49:10;;;;;;;12.20;6.00;;;;;;;-2.74;100.00;99814.16;5016431;28;20589;-70
2023/11/29 08:51:36;;;;;;;13.47;6.57;;;;;;;-2.68;100.00;99818.28;5015563;28;20799;-69
2023/11/29 08:54:03;;;;;;;12.63;6.60;;;;;;;-2.64;100.00;99817.50;5016197;28;20552;-71
2023/11/29 08:56:29;;;;;;;10.93;5.67;;;;;;;-2.56;100.00;99809.25;5016280;28;20468;-68
2023/11/29 08:58:58;;;;;;;11.60;5.87;;;;;;;-2.51;100.00;99805.88;5016845;28;20469;-71
2023/11/29 09:01:25;;;;;;;10.37;5.97;;;;;;;-2.47;100.00;99807.72;5012401;28;20679;-69
2023/11/29 09:03:52;;;;;;;12.63;6.27;;;;;;;-2.40;100.00;99803.06;5016120;28;20247;-70
2023/11/29 09:06:18;;;;;;;10.43;5.77;;;;;;;-2.34;100.00;99801.25;5019032;28;20370;-70
2023/11/29 09:08:46;;;;;;;11.63;6.60;;;;;;;-2.32;100.00;99799.97;5018945;28;20723;-70
2023/11/29 09:11:13;;;;;;;9.53;6.30;;;;;;;-2.31;100.00;99806.69;5020140;28;20518;-70
2023/11/29 09:13:40;;;;;;;14.13;7.50;;;;;;;-2.26;100.00;99811.06;5020764;28;20709;-70
2023/11/29 09:16:08;;;;;;;14.40;8.30;;;;;;;-2.25;100.00;99808.22;5022113;28;20614;-71
2023/11/29 09:18:36;;;;;;;16.13;8.80;;;;;;;-2.23;100.00;99803.56;5018837;28;20212;-70
2023/11/29 09:21:03;;;;;;;12.10;7.30;;;;;;;-2.20;100.00;99805.63;5022220;28;20299;-70
2023/11/29 09:23:29;;;;;;;14.93;8.13;;;;;;;-2.16;100.00;99806.66;5023507;28;20219;-69
2023/11/29 09:25:55;;;;;;;12.83;7.17;;;;;;;-2.11;100.00;99806.66;5021041;28;20700;-70
2023/11/29 09:28:22;;;;;;;13.37;7.63;;;;;;;-2.05;100.00;99802.22;5021405;28;20219;-71
2023/11/29 09:30:48;;;;;;;12.07;7.80;;;;;;;-2.02;100.00;99799.91;5020175;28;20208;-69
2023/11/29 09:33:16;;;;;;;14.93;6.97;;;;;;;-1.99;100.00;99791.63;5021611;28;20220;-69
2023/11/29 09:35:42;;;;;;;14.80;8.93;;;;;;;-1.95;100.00;99787.47;5021617;28;20214;-71
2023/11/29 09:38:10;;;;;;;20.20;9.13;;;;;;;-1.92;100.00;99789.53;5018919;28;20259;-70
2023/11/29 09:40:36;;;;;;;14.13;8.00;;;;;;;-1.88;100.00;99782.78;5020555;28;20294;-70
2023/11/29 09:43:03;;;;;;;17.20;8.97;;;;;;;-1.83;100.00;99780.19;5015713;28;20652;-70
2023/11/29 09:45:31;;;;;;;13.13;8.17;;;;;;;-1.79;100.00;99776.06;5022425;28;20200;-70
2023/11/29 09:47:57;;;;;;;12.20;7.57;;;;;;;-1.74;100.00;99772.66;5019394;28;20207;-71
2023/11/29 09:50:26;;;;;;;10.57;7.00;;;;;;;-1.68;100.00;99776.78;5019454;28;20207;-70
2023/11/29 09:52:53;;;;;;;13.50;8.07;;;;;;;-1.63;100.00;99769.78;5016188;28;20223;-70
2023/11/29 09:55:20;;;;;;;12.43;7.50;;;;;;;-1.56;100.00;99759.91;5020988;28;20196;-69
2023/11/29 09:57:46;;;;;;;10.53;6.90;;;;;;;-1.48;100.00;99761.94;5018898;28;20547;-69
2023/11/29 10:00:15;;;;;;;12.03;7.60;;;;;;;-1.41;100.00;99762.41;5021299;28;20234;-70
2023/11/29 10:02:42;;;;;;;13.97;8.07;;;;;;;-1.33;100.00;99762.63;5018906;28;20355;-71
2023/11/29 10:05:08;;;;;;;12.93;7.57;;;;;;;-1.27;100.00;99752.25;5021524;28;20208;-70
2023/11/29 10:07:36;;;;;;;15.40;8.13;;;;;;;-1.19;100.00;99749.09;5018575;28;20215;-69
2023/11/29 10:10:05;;;;;;;15.13;8.77;;;;;;;-1.15;100.00;99750.88;5020381;28;20204;-71
2023/11/29 10:12:32;;;;;;;12.70;7.53;;;;;;;-1.05;100.00;99756.00;5016107;28;20303;-69
2023/11/29 10:14:58;;;;;;;14.93;8.23;;;;;;;-0.98;100.00;99756.50;5018955;28;20216;-70
2023/11/29 10:17:27;;;;;;;13.23;8.13;;;;;;;-0.94;100.00;99748.94;5017708;28;21699;-71
2023/11/29 10:19:55;;;;;;;13.67;8.20;;;;;;;-0.88;100.00;99745.28;5018464;28;20208;-69
2023/11/29 10:22:22;;;;;;;13.13;8.23;;;;;;;-0.82;100.00;99746.78;5019332;28;20321;-70
2023/11/29 10:24:49;;;;;;;14.47;7.97;;;;;;;-0.72;100.00;99739.72;5020306;28;20222;-70
2023/11/29 10:27:17;;;;;;;14.37;8.37;;;;;;;-0.64;100.00;99740.94;5020323;28;20215;-71
2023/11/29 10:29:43;;;;;;;13.20;8.00;;;;;;;-0.56;100.00;99743.72;5016156;28;20212;-70
2023/11/29 10:32:10;;;;;;;11.43;7.50;;;;;;;-0.47;100.00;99743.91;5021443;28;20934;-70
2023/11/29 10:34:37;;;;;;;12.50;7.93;;;;;;;-0.45;100.00;99740.75;5022679;28;20205;-71
2023/11/29 10:37:05;;;;;;;15.20;8.07;;;;;;;-0.42;100.00;99745.38;5019458;28;20207;-70
2023/11/29 10:39:33;;;;;;;13.63;8.83;;;;;;;-0.41;100.00;99738.41;5016661;28;20295;-71
2023/11/29 10:42:07;;;;;;;11.27;7.13;;;;;;;-0.40;100.00;99727.72;5015426;28;20566;-70
2023/11/29 10:44:37;;;;;;;13.47;7.57;;;;;;;-0.38;100.00;99733.44;5018927;28;20709;-70
2023/11/29 10:47:14;;;;;;;9.93;6.23;;;;;;;-0.37;100.00;99729.78;5016839;28;20211;-70
2023/11/29 10:49:46;;;;;;;11.23;7.03;;;;;;;-0.36;100.00;99728.72;5016958;28;20196;-71
2023/11/29 10:52:12;;;;;;;10.90;6.83;;;;;;;-0.35;98.74;99729.53;5019661;28;20224;-70
2023/11/29 10:54:39;;;;;;;10.23;6.30;;;;;;;-0.32;98.89;99723.00;5020684;28;20208;-70
2023/11/29 10:57:09;;;;;;;9.20;6.13;;;;;;;-0.33;98.33;99721.47;5020297;28;20222;-70
2023/11/29 10:59:39;;;;;;;10.63;6.77;;;;;;;-0.32;98.07;99727.16;5016255;28;20214;-69
2023/11/29 11:02:06;;;;;;;9.50;5.97;;;;;;;-0.30;98.31;99725.03;5021962;28;20239;-71
2023/11/29 11:04:33;;;;;;;7.70;5.57;;;;;;;-0.28;97.95;99722.97;5015222;28;20312;-70
2023/11/29 11:07:02;;;;;;;8.43;5.67;;;;;;;-0.24;97.92;99721.34;5016718;28;20206;-71
2023/11/29 11:09:33;;;;;;;8.43;5.43;;;;;;;-0.17;97.89;99720.25;5014438;28;20211;-69
2023/11/29 11:11:59;;;;;;;8.33;6.03;;;;;;;-0.14;98.35;99715.28;5018285;28;20215;-71